sensor_id;sensor_type;location;lat;lon;timestamp;P1;durP1;ratioP1;P2;durP2;ratioP2
9950;SDS011;24074;49.254;6.702;2023-05-29T00:00:04;7.57;;;6.50;;
9950;SDS011;24074;49.254;6.702;2023-05-29T00:02:33;11.13;;;7.03;;
9950;SDS011;24074;49.254;6.702;2023-05-29T00:04:59;16.60;;;7.40;;
9950;SDS011;24074;49.254;6.702;2023-05-29T00:07:28;10.43;;;6.87;;
9950;SDS011;24074;49.254;6.702;2023-05-29T00:09:54;10.47;;;7.27;;
9950;SDS011;24074;49.254;6.702;2023-05-29T00:12:20;9.13;;;6.63;;
9950;SDS011;24074;49.254;6.702;2023-05-29T00:14:47;12.93;;;7.80;;
9950;SDS011;24074;49.254;6.702;2023-05-29T00:17:14;10.97;;;6.73;;
9950;SDS011;24074;49.254;6.702;2023-05-29T00:19:40;9.80;;;6.67;;
9950;SDS011;24074;49.254;6.702;2023-05-29T00:22:06;11.30;;;6.80;;
9950;SDS011;24074;49.254;6.702;2023-05-29T00:24:32;10.03;;;7.17;;
9950;SDS011;24074;49.254;6.702;2023-05-29T00:26:58;9.00;;;6.57;;
9950;SDS011;24074;49.254;6.702;2023-05-29T00:29:23;10.00;;;6.77;;
9950;SDS011;24074;49.254;6.702;2023-05-29T00:31:49;10.20;;;6.70;;
9950;SDS011;24074;49.254;6.702;2023-05-29T00:34:14;8.47;;;6.53;;
9950;SDS011;24074;49.254;6.702;2023-05-29T00:36:43;11.00;;;6.80;;
9950;SDS011;24074;49.254;6.702;2023-05-29T00:39:10;9.73;;;6.87;;
9950;SDS011;24074;49.254;6.702;2023-05-29T00:41:35;9.60;;;6.50;;
9950;SDS011;24074;49.254;6.702;2023-05-29T00:44:01;9.37;;;6.93;;
9950;SDS011;24074;49.254;6.702;2023-05-29T00:46:27;9.40;;;6.90;;
9950;SDS011;24074;49.254;6.702;2023-05-29T00:48:53;8.40;;;6.47;;
9950;SDS011;24074;49.254;6.702;2023-05-29T00:51:18;10.20;;;7.20;;
9950;SDS011;24074;49.254;6.702;2023-05-29T00:53:44;9.17;;;6.50;;
9950;SDS011;24074;49.254;6.702;2023-05-29T00:56:11;10.43;;;6.27;;
9950;SDS011;24074;49.254;6.702;2023-05-29T00:58:37;10.97;;;7.00;;
9950;SDS011;24074;49.254;6.702;2023-05-29T01:01:03;10.03;;;6.67;;
9950;SDS011;24074;49.254;6.702;2023-05-29T01:03:29;7.17;;;6.10;;
9950;SDS011;24074;49.254;6.702;2023-05-29T01:05:57;10.07;;;6.70;;
9950;SDS011;24074;49.254;6.702;2023-05-29T01:08:23;9.40;;;6.70;;
9950;SDS011;24074;49.254;6.702;2023-05-29T01:10:48;8.50;;;6.50;;
9950;SDS011;24074;49.254;6.702;2023-05-29T01:13:25;8.97;;;5.80;;
9950;SDS011;24074;49.254;6.702;2023-05-29T01:15:56;8.67;;;6.33;;
9950;SDS011;24074;49.254;6.702;2023-05-29T01:21:20;8.30;;;6.10;;
9950;SDS011;24074;49.254;6.702;2023-05-29T01:23:52;8.43;;;5.23;;
9950;SDS011;24074;49.254;6.702;2023-05-29T01:29:28;6.83;;;4.47;;
9950;SDS011;24074;49.254;6.702;2023-05-29T01:31:56;6.17;;;4.60;;
9950;SDS011;24074;49.254;6.702;2023-05-29T01:34:23;8.73;;;4.37;;
9950;SDS011;24074;49.254;6.702;2023-05-29T01:36:49;8.03;;;4.40;;
9950;SDS011;24074;49.254;6.702;2023-05-29T01:39:15;6.80;;;4.00;;
9950;SDS011;24074;49.254;6.702;2023-05-29T01:42:02;8.43;;;4.57;;
9950;SDS011;24074;49.254;6.702;2023-05-29T01:44:28;6.43;;;4.50;;
9950;SDS011;24074;49.254;6.702;2023-05-29T01:46:54;5.33;;;4.00;;
9950;SDS011;24074;49.254;6.702;2023-05-29T01:49:20;5.67;;;3.90;;
9950;SDS011;24074;49.254;6.702;2023-05-29T01:51:48;5.30;;;3.80;;
9950;SDS011;24074;49.254;6.702;2023-05-29T01:54:13;4.53;;;3.70;;
9950;SDS011;24074;49.254;6.702;2023-05-29T01:56:39;6.30;;;3.80;;
9950;SDS011;24074;49.254;6.702;2023-05-29T01:59:05;5.83;;;4.03;;
9950;SDS011;24074;49.254;6.702;2023-05-29T02:01:31;5.53;;;4.03;;
9950;SDS011;24074;49.254;6.702;2023-05-29T02:03:57;8.17;;;4.17;;
9950;SDS011;24074;49.254;6.702;2023-05-29T02:06:23;6.43;;;3.87;;
9950;SDS011;24074;49.254;6.702;2023-05-29T02:08:48;4.97;;;3.53;;
9950;SDS011;24074;49.254;6.702;2023-05-29T02:11:14;7.03;;;4.17;;
9950;SDS011;24074;49.254;6.702;2023-05-29T02:13:41;5.97;;;4.20;;
9950;SDS011;24074;49.254;6.702;2023-05-29T02:16:06;9.30;;;4.30;;
9950;SDS011;24074;49.254;6.702;2023-05-29T02:18:32;5.60;;;3.80;;
9950;SDS011;24074;49.254;6.702;2023-05-29T02:20:59;7.50;;;4.27;;
9950;SDS011;24074;49.254;6.702;2023-05-29T02:23:25;6.87;;;4.13;;
9950;SDS011;24074;49.254;6.702;2023-05-29T02:25:50;5.60;;;4.00;;
9950;SDS011;24074;49.254;6.702;2023-05-29T02:28:16;4.83;;;3.53;;
9950;SDS011;24074;49.254;6.702;2023-05-29T02:30:42;5.13;;;3.77;;
9950;SDS011;24074;49.254;6.702;2023-05-29T02:33:07;5.53;;;3.80;;
9950;SDS011;24074;49.254;6.702;2023-05-29T02:35:33;6.33;;;3.97;;
9950;SDS011;24074;49.254;6.702;2023-05-29T02:37:59;6.27;;;3.80;;
9950;SDS011;24074;49.254;6.702;2023-05-29T02:40:24;6.43;;;4.10;;
9950;SDS011;24074;49.254;6.702;2023-05-29T02:42:53;7.00;;;3.93;;
9950;SDS011;24074;49.254;6.702;2023-05-29T02:45:18;6.77;;;4.27;;
9950;SDS011;24074;49.254;6.702;2023-05-29T02:47:44;8.83;;;4.13;;
9950;SDS011;24074;49.254;6.702;2023-05-29T02:50:10;5.43;;;3.63;;
9950;SDS011;24074;49.254;6.702;2023-05-29T02:52:35;6.53;;;3.80;;
9950;SDS011;24074;49.254;6.702;2023-05-29T02:55:04;6.70;;;3.77;;
9950;SDS011;24074;49.254;6.702;2023-05-29T02:57:31;5.53;;;3.93;;
9950;SDS011;24074;49.254;6.702;2023-05-29T02:59:57;6.63;;;3.83;;
9950;SDS011;24074;49.254;6.702;2023-05-29T03:02:22;6.53;;;4.07;;
9950;SDS011;24074;49.254;6.702;2023-05-29T03:04:48;6.47;;;3.80;;
9950;SDS011;24074;49.254;6.702;2023-05-29T03:07:17;6.67;;;3.73;;
9950;SDS011;24074;49.254;6.702;2023-05-29T03:09:43;6.13;;;4.10;;
9950;SDS011;24074;49.254;6.702;2023-05-29T03:12:09;6.10;;;3.63;;
9950;SDS011;24074;49.254;6.702;2023-05-29T03:14:34;5.50;;;3.50;;
9950;SDS011;24074;49.254;6.702;2023-05-29T03:17:04;4.97;;;3.50;;
9950;SDS011;24074;49.254;6.702;2023-05-29T03:19:30;6.17;;;3.53;;
9950;SDS011;24074;49.254;6.702;2023-05-29T03:21:56;6.57;;;3.70;;
9950;SDS011;24074;49.254;6.702;2023-05-29T03:24:21;4.97;;;3.60;;
9950;SDS011;24074;49.254;6.702;2023-05-29T03:26:48;4.93;;;3.60;;
9950;SDS011;24074;49.254;6.702;2023-05-29T03:29:14;7.43;;;3.73;;
9950;SDS011;24074;49.254;6.702;2023-05-29T03:31:41;6.10;;;3.60;;
9950;SDS011;24074;49.254;6.702;2023-05-29T03:34:07;5.33;;;3.70;;
9950;SDS011;24074;49.254;6.702;2023-05-29T03:36:32;5.33;;;3.80;;
9950;SDS011;24074;49.254;6.702;2023-05-29T03:39:01;8.27;;;3.97;;
9950;SDS011;24074;49.254;6.702;2023-05-29T03:41:27;6.10;;;3.70;;
9950;SDS011;24074;49.254;6.702;2023-05-29T03:43:52;4.77;;;3.40;;
9950;SDS011;24074;49.254;6.702;2023-05-29T03:46:18;5.00;;;3.63;;
9950;SDS011;24074;49.254;6.702;2023-05-29T03:48:44;6.93;;;3.90;;
9950;SDS011;24074;49.254;6.702;2023-05-29T03:51:09;6.63;;;3.73;;
9950;SDS011;24074;49.254;6.702;2023-05-29T03:53:35;5.93;;;3.40;;
9950;SDS011;24074;49.254;6.702;2023-05-29T03:56:01;8.37;;;3.53;;
9950;SDS011;24074;49.254;6.702;2023-05-29T03:58:26;5.83;;;3.80;;
9950;SDS011;24074;49.254;6.702;2023-05-29T04:00:52;7.23;;;4.00;;
9950;SDS011;24074;49.254;6.702;2023-05-29T04:03:18;7.27;;;4.30;;
9950;SDS011;24074;49.254;6.702;2023-05-29T04:05:43;7.67;;;4.20;;
9950;SDS011;24074;49.254;6.702;2023-05-29T04:08:09;7.33;;;4.17;;
9950;SDS011;24074;49.254;6.702;2023-05-29T04:10:35;7.37;;;4.30;;
9950;SDS011;24074;49.254;6.702;2023-05-29T04:13:02;8.70;;;4.67;;
9950;SDS011;24074;49.254;6.702;2023-05-29T04:15:27;7.33;;;4.37;;
9950;SDS011;24074;49.254;6.702;2023-05-29T04:17:53;11.40;;;4.30;;
9950;SDS011;24074;49.254;6.702;2023-05-29T04:20:22;7.13;;;4.37;;
9950;SDS011;24074;49.254;6.702;2023-05-29T04:22:48;6.93;;;4.30;;
9950;SDS011;24074;49.254;6.702;2023-05-29T04:25:13;7.70;;;4.37;;
9950;SDS011;24074;49.254;6.702;2023-05-29T04:27:40;9.60;;;4.27;;
9950;SDS011;24074;49.254;6.702;2023-05-29T04:30:07;7.20;;;4.50;;
9950;SDS011;24074;49.254;6.702;2023-05-29T04:32:33;7.80;;;4.37;;
9950;SDS011;24074;49.254;6.702;2023-05-29T04:34:59;8.90;;;4.93;;
9950;SDS011;24074;49.254;6.702;2023-05-29T04:37:28;9.07;;;4.80;;
9950;SDS011;24074;49.254;6.702;2023-05-29T04:39:57;8.77;;;4.57;;
9950;SDS011;24074;49.254;6.702;2023-05-29T04:42:24;8.57;;;4.43;;
9950;SDS011;24074;49.254;6.702;2023-05-29T04:44:50;7.87;;;4.40;;
9950;SDS011;24074;49.254;6.702;2023-05-29T04:47:17;8.53;;;3.90;;
9950;SDS011;24074;49.254;6.702;2023-05-29T04:49:44;7.37;;;4.23;;
9950;SDS011;24074;49.254;6.702;2023-05-29T04:52:13;6.50;;;4.43;;
9950;SDS011;24074;49.254;6.702;2023-05-29T04:54:40;9.50;;;4.47;;
9950;SDS011;24074;49.254;6.702;2023-05-29T04:57:06;7.67;;;4.30;;
9950;SDS011;24074;49.254;6.702;2023-05-29T04:59:31;7.57;;;3.90;;
9950;SDS011;24074;49.254;6.702;2023-05-29T05:01:57;8.27;;;4.57;;
9950;SDS011;24074;49.254;6.702;2023-05-29T05:04:22;8.87;;;3.97;;
9950;SDS011;24074;49.254;6.702;2023-05-29T05:06:48;5.37;;;3.77;;
9950;SDS011;24074;49.254;6.702;2023-05-29T05:09:13;7.57;;;4.03;;
9950;SDS011;24074;49.254;6.702;2023-05-29T05:11:42;6.20;;;4.03;;
9950;SDS011;24074;49.254;6.702;2023-05-29T05:14:08;8.13;;;4.27;;
9950;SDS011;24074;49.254;6.702;2023-05-29T05:16:34;5.70;;;3.70;;
9950;SDS011;24074;49.254;6.702;2023-05-29T05:18:59;7.73;;;3.93;;
9950;SDS011;24074;49.254;6.702;2023-05-29T05:21:25;7.57;;;4.37;;
9950;SDS011;24074;49.254;6.702;2023-05-29T05:23:50;5.90;;;3.70;;
9950;SDS011;24074;49.254;6.702;2023-05-29T05:26:16;4.57;;;3.40;;
9950;SDS011;24074;49.254;6.702;2023-05-29T05:28:41;5.67;;;3.57;;
9950;SDS011;24074;49.254;6.702;2023-05-29T05:31:07;7.80;;;3.87;;
9950;SDS011;24074;49.254;6.702;2023-05-29T05:33:33;5.47;;;4.17;;
9950;SDS011;24074;49.254;6.702;2023-05-29T05:35:59;5.20;;;3.50;;
9950;SDS011;24074;49.254;6.702;2023-05-29T05:38:25;7.23;;;3.80;;
9950;SDS011;24074;49.254;6.702;2023-05-29T05:40:51;6.47;;;3.40;;
9950;SDS011;24074;49.254;6.702;2023-05-29T05:43:16;6.17;;;3.43;;
9950;SDS011;24074;49.254;6.702;2023-05-29T05:45:42;4.60;;;3.37;;
9950;SDS011;24074;49.254;6.702;2023-05-29T05:48:08;6.03;;;3.57;;
9950;SDS011;24074;49.254;6.702;2023-05-29T05:50:34;6.30;;;3.40;;
9950;SDS011;24074;49.254;6.702;2023-05-29T05:53:00;5.87;;;3.60;;
9950;SDS011;24074;49.254;6.702;2023-05-29T05:55:25;4.87;;;3.70;;
9950;SDS011;24074;49.254;6.702;2023-05-29T05:57:52;7.07;;;3.50;;
9950;SDS011;24074;49.254;6.702;2023-05-29T06:00:19;5.10;;;3.57;;
9950;SDS011;24074;49.254;6.702;2023-05-29T06:02:44;4.83;;;3.33;;
9950;SDS011;24074;49.254;6.702;2023-05-29T06:05:11;6.23;;;3.77;;
9950;SDS011;24074;49.254;6.702;2023-05-29T06:07:37;5.63;;;3.30;;
9950;SDS011;24074;49.254;6.702;2023-05-29T06:10:03;7.87;;;3.47;;
9950;SDS011;24074;49.254;6.702;2023-05-29T06:12:29;6.00;;;3.77;;
9950;SDS011;24074;49.254;6.702;2023-05-29T06:14:55;4.47;;;3.60;;
9950;SDS011;24074;49.254;6.702;2023-05-29T06:17:20;7.43;;;3.63;;
9950;SDS011;24074;49.254;6.702;2023-05-29T06:19:46;5.73;;;3.60;;
9950;SDS011;24074;49.254;6.702;2023-05-29T06:22:13;6.53;;;3.47;;
9950;SDS011;24074;49.254;6.702;2023-05-29T06:24:39;3.60;;;3.17;;
9950;SDS011;24074;49.254;6.702;2023-05-29T06:27:05;7.40;;;3.40;;
9950;SDS011;24074;49.254;6.702;2023-05-29T06:29:31;3.97;;;3.03;;
9950;SDS011;24074;49.254;6.702;2023-05-29T06:31:57;5.97;;;3.20;;
9950;SDS011;24074;49.254;6.702;2023-05-29T06:34:23;4.07;;;2.97;;
9950;SDS011;24074;49.254;6.702;2023-05-29T06:36:48;4.30;;;3.20;;
9950;SDS011;24074;49.254;6.702;2023-05-29T06:39:14;3.87;;;3.07;;
9950;SDS011;24074;49.254;6.702;2023-05-29T06:41:40;4.37;;;3.53;;
9950;SDS011;24074;49.254;6.702;2023-05-29T06:44:06;5.20;;;3.23;;
9950;SDS011;24074;49.254;6.702;2023-05-29T06:46:32;4.43;;;3.00;;
9950;SDS011;24074;49.254;6.702;2023-05-29T06:48:57;4.20;;;3.33;;
9950;SDS011;24074;49.254;6.702;2023-05-29T06:51:23;3.63;;;2.83;;
9950;SDS011;24074;49.254;6.702;2023-05-29T06:53:48;4.97;;;3.03;;
9950;SDS011;24074;49.254;6.702;2023-05-29T06:56:14;4.00;;;2.70;;
9950;SDS011;24074;49.254;6.702;2023-05-29T06:58:40;5.67;;;2.73;;
9950;SDS011;24074;49.254;6.702;2023-05-29T07:01:05;4.80;;;2.83;;
9950;SDS011;24074;49.254;6.702;2023-05-29T07:03:31;5.57;;;2.92;;
9950;SDS011;24074;49.254;6.702;2023-05-29T07:05:56;4.82;;;3.03;;
9950;SDS011;24074;49.254;6.702;2023-05-29T07:08:22;3.95;;;3.10;;
9950;SDS011;24074;49.254;6.702;2023-05-29T07:10:49;4.38;;;2.78;;
9950;SDS011;24074;49.254;6.702;2023-05-29T07:13:15;3.80;;;2.80;;
9950;SDS011;24074;49.254;6.702;2023-05-29T07:15:42;3.80;;;2.97;;
9950;SDS011;24074;49.254;6.702;2023-05-29T07:18:12;4.80;;;2.78;;
9950;SDS011;24074;49.254;6.702;2023-05-29T07:20:38;5.38;;;3.03;;
9950;SDS011;24074;49.254;6.702;2023-05-29T07:23:04;6.50;;;2.80;;
9950;SDS011;24074;49.254;6.702;2023-05-29T07:25:30;4.65;;;2.75;;
9950;SDS011;24074;49.254;6.702;2023-05-29T07:27:56;6.05;;;3.00;;
9950;SDS011;24074;49.254;6.702;2023-05-29T07:30:21;3.72;;;2.88;;
9950;SDS011;24074;49.254;6.702;2023-05-29T07:32:47;4.57;;;3.10;;
9950;SDS011;24074;49.254;6.702;2023-05-29T07:35:13;6.35;;;3.40;;
9950;SDS011;24074;49.254;6.702;2023-05-29T07:37:38;3.25;;;2.70;;
9950;SDS011;24074;49.254;6.702;2023-05-29T07:40:04;4.00;;;2.75;;
9950;SDS011;24074;49.254;6.702;2023-05-29T07:42:33;5.78;;;3.33;;
9950;SDS011;24074;49.254;6.702;2023-05-29T07:44:59;3.25;;;2.90;;
9950;SDS011;24074;49.254;6.702;2023-05-29T07:47:24;3.92;;;2.83;;
9950;SDS011;24074;49.254;6.702;2023-05-29T07:49:50;3.97;;;2.95;;
9950;SDS011;24074;49.254;6.702;2023-05-29T07:52:17;3.83;;;2.53;;
9950;SDS011;24074;49.254;6.702;2023-05-29T07:54:42;4.72;;;2.92;;
9950;SDS011;24074;49.254;6.702;2023-05-29T07:57:08;5.35;;;2.60;;
9950;SDS011;24074;49.254;6.702;2023-05-29T07:59:39;4.20;;;2.60;;
9950;SDS011;24074;49.254;6.702;2023-05-29T08:02:06;3.60;;;3.08;;
9950;SDS011;24074;49.254;6.702;2023-05-29T08:04:32;4.57;;;2.67;;
9950;SDS011;24074;49.254;6.702;2023-05-29T08:06:58;3.22;;;2.33;;
9950;SDS011;24074;49.254;6.702;2023-05-29T08:09:25;4.63;;;3.03;;
9950;SDS011;24074;49.254;6.702;2023-05-29T08:11:51;4.82;;;3.25;;
9950;SDS011;24074;49.254;6.702;2023-05-29T08:14:16;3.15;;;2.85;;
9950;SDS011;24074;49.254;6.702;2023-05-29T08:16:42;4.70;;;2.70;;
9950;SDS011;24074;49.254;6.702;2023-05-29T08:19:08;4.32;;;2.85;;
9950;SDS011;24074;49.254;6.702;2023-05-29T08:21:33;3.92;;;2.83;;
9950;SDS011;24074;49.254;6.702;2023-05-29T08:23:59;3.47;;;2.80;;
9950;SDS011;24074;49.254;6.702;2023-05-29T08:26:25;5.43;;;2.85;;
9950;SDS011;24074;49.254;6.702;2023-05-29T08:28:51;4.40;;;2.90;;
9950;SDS011;24074;49.254;6.702;2023-05-29T08:31:17;3.90;;;2.50;;
9950;SDS011;24074;49.254;6.702;2023-05-29T08:33:42;4.95;;;2.80;;
9950;SDS011;24074;49.254;6.702;2023-05-29T08:36:08;4.60;;;2.90;;
9950;SDS011;24074;49.254;6.702;2023-05-29T08:38:34;5.20;;;3.10;;
9950;SDS011;24074;49.254;6.702;2023-05-29T08:41:01;4.85;;;2.50;;
9950;SDS011;24074;49.254;6.702;2023-05-29T08:43:30;4.00;;;2.50;;
9950;SDS011;24074;49.254;6.702;2023-05-29T08:45:59;3.05;;;2.47;;
9950;SDS011;24074;49.254;6.702;2023-05-29T08:48:26;3.83;;;2.80;;
9950;SDS011;24074;49.254;6.702;2023-05-29T08:50:54;4.07;;;3.13;;
9950;SDS011;24074;49.254;6.702;2023-05-29T08:53:21;4.13;;;3.10;;
9950;SDS011;24074;49.254;6.702;2023-05-29T08:55:48;3.15;;;2.80;;
9950;SDS011;24074;49.254;6.702;2023-05-29T08:58:18;6.63;;;2.90;;
9950;SDS011;24074;49.254;6.702;2023-05-29T09:00:48;4.93;;;2.70;;
9950;SDS011;24074;49.254;6.702;2023-05-29T09:03:15;3.75;;;2.88;;
9950;SDS011;24074;49.254;6.702;2023-05-29T09:05:40;3.10;;;2.80;;
9950;SDS011;24074;49.254;6.702;2023-05-29T09:08:08;4.05;;;2.50;;
9950;SDS011;24074;49.254;6.702;2023-05-29T09:10:34;4.80;;;2.97;;
9950;SDS011;24074;49.254;6.702;2023-05-29T09:13:00;3.28;;;2.90;;
9950;SDS011;24074;49.254;6.702;2023-05-29T09:15:26;3.38;;;2.72;;
9950;SDS011;24074;49.254;6.702;2023-05-29T09:17:52;6.70;;;2.97;;
9950;SDS011;24074;49.254;6.702;2023-05-29T09:20:19;4.03;;;2.65;;
9950;SDS011;24074;49.254;6.702;2023-05-29T09:25:28;3.35;;;3.05;;
9950;SDS011;24074;49.254;6.702;2023-05-29T09:27:58;3.85;;;2.67;;
9950;SDS011;24074;49.254;6.702;2023-05-29T09:30:32;4.03;;;2.67;;
9950;SDS011;24074;49.254;6.702;2023-05-29T09:32:59;5.40;;;3.15;;
9950;SDS011;24074;49.254;6.702;2023-05-29T09:35:35;7.40;;;3.38;;
9950;SDS011;24074;49.254;6.702;2023-05-29T09:38:01;5.13;;;2.90;;
9950;SDS011;24074;49.254;6.702;2023-05-29T09:40:29;5.05;;;2.80;;
9950;SDS011;24074;49.254;6.702;2023-05-29T09:42:56;3.88;;;2.80;;
9950;SDS011;24074;49.254;6.702;2023-05-29T09:45:42;2.95;;;2.58;;
9950;SDS011;24074;49.254;6.702;2023-05-29T09:48:15;3.42;;;2.80;;
9950;SDS011;24074;49.254;6.702;2023-05-29T09:50:42;4.47;;;3.42;;
9950;SDS011;24074;49.254;6.702;2023-05-29T09:53:18;3.28;;;2.80;;
9950;SDS011;24074;49.254;6.702;2023-05-29T09:55:44;4.90;;;2.40;;
9950;SDS011;24074;49.254;6.702;2023-05-29T09:58:12;5.72;;;3.05;;
9950;SDS011;24074;49.254;6.702;2023-05-29T10:00:39;3.78;;;2.72;;
9950;SDS011;24074;49.254;6.702;2023-05-29T10:03:05;3.17;;;2.88;;
9950;SDS011;24074;49.254;6.702;2023-05-29T10:05:31;3.55;;;2.92;;
9950;SDS011;24074;49.254;6.702;2023-05-29T10:07:56;5.70;;;3.05;;
9950;SDS011;24074;49.254;6.702;2023-05-29T10:10:27;3.53;;;2.72;;
9950;SDS011;24074;49.254;6.702;2023-05-29T10:12:53;3.80;;;2.83;;
9950;SDS011;24074;49.254;6.702;2023-05-29T10:15:21;4.50;;;2.90;;
9950;SDS011;24074;49.254;6.702;2023-05-29T10:17:49;3.50;;;2.70;;
9950;SDS011;24074;49.254;6.702;2023-05-29T10:20:17;5.80;;;3.13;;
9950;SDS011;24074;49.254;6.702;2023-05-29T10:22:46;5.10;;;2.80;;
9950;SDS011;24074;49.254;6.702;2023-05-29T10:25:14;6.85;;;3.00;;
9950;SDS011;24074;49.254;6.702;2023-05-29T10:27:44;4.82;;;3.17;;
9950;SDS011;24074;49.254;6.702;2023-05-29T10:30:12;5.63;;;3.10;;
9950;SDS011;24074;49.254;6.702;2023-05-29T10:32:55;4.57;;;2.80;;
9950;SDS011;24074;49.254;6.702;2023-05-29T10:35:42;4.65;;;3.13;;
9950;SDS011;24074;49.254;6.702;2023-05-29T10:38:20;4.13;;;3.13;;
9950;SDS011;24074;49.254;6.702;2023-05-29T10:40:46;5.80;;;3.28;;
9950;SDS011;24074;49.254;6.702;2023-05-29T10:46:00;4.40;;;3.10;;
9950;SDS011;24074;49.254;6.702;2023-05-29T10:50:55;5.15;;;3.30;;
9950;SDS011;24074;49.254;6.702;2023-05-29T10:53:25;4.07;;;3.10;;
9950;SDS011;24074;49.254;6.702;2023-05-29T10:55:52;3.95;;;2.90;;
9950;SDS011;24074;49.254;6.702;2023-05-29T10:58:18;4.07;;;3.30;;
9950;SDS011;24074;49.254;6.702;2023-05-29T11:00:45;4.63;;;3.20;;
9950;SDS011;24074;49.254;6.702;2023-05-29T11:03:14;4.53;;;2.92;;
9950;SDS011;24074;49.254;6.702;2023-05-29T11:06:17;4.63;;;3.40;;
9950;SDS011;24074;49.254;6.702;2023-05-29T11:13:57;3.78;;;3.05;;
9950;SDS011;24074;49.254;6.702;2023-05-29T11:18:55;4.53;;;3.20;;
9950;SDS011;24074;49.254;6.702;2023-05-29T11:24:33;4.65;;;3.30;;
9950;SDS011;24074;49.254;6.702;2023-05-29T11:26:58;4.45;;;3.00;;
9950;SDS011;24074;49.254;6.702;2023-05-29T11:29:29;5.30;;;3.10;;
9950;SDS011;24074;49.254;6.702;2023-05-29T11:31:57;4.88;;;3.22;;
9950;SDS011;24074;49.254;6.702;2023-05-29T11:34:28;5.45;;;3.60;;
9950;SDS011;24074;49.254;6.702;2023-05-29T11:37:13;5.15;;;3.40;;
9950;SDS011;24074;49.254;6.702;2023-05-29T11:39:39;4.28;;;3.00;;
9950;SDS011;24074;49.254;6.702;2023-05-29T11:42:07;5.38;;;3.65;;
9950;SDS011;24074;49.254;6.702;2023-05-29T11:44:33;4.68;;;2.92;;
9950;SDS011;24074;49.254;6.702;2023-05-29T11:47:05;5.72;;;3.20;;
9950;SDS011;24074;49.254;6.702;2023-05-29T11:49:32;7.65;;;3.30;;
9950;SDS011;24074;49.254;6.702;2023-05-29T11:52:09;4.22;;;3.22;;
9950;SDS011;24074;49.254;6.702;2023-05-29T11:54:36;5.25;;;3.60;;
9950;SDS011;24074;49.254;6.702;2023-05-29T11:57:02;6.30;;;3.55;;
9950;SDS011;24074;49.254;6.702;2023-05-29T11:59:30;5.43;;;3.17;;
9950;SDS011;24074;49.254;6.702;2023-05-29T12:01:56;4.53;;;3.13;;
9950;SDS011;24074;49.254;6.702;2023-05-29T12:04:21;4.65;;;3.15;;
9950;SDS011;24074;49.254;6.702;2023-05-29T12:06:47;5.45;;;3.45;;
9950;SDS011;24074;49.254;6.702;2023-05-29T12:09:25;5.50;;;3.53;;
9950;SDS011;24074;49.254;6.702;2023-05-29T12:12:01;7.13;;;3.88;;
9950;SDS011;24074;49.254;6.702;2023-05-29T12:14:27;6.10;;;3.17;;
9950;SDS011;24074;49.254;6.702;2023-05-29T12:16:53;5.63;;;3.60;;
9950;SDS011;24074;49.254;6.702;2023-05-29T12:19:18;3.95;;;3.00;;
9950;SDS011;24074;49.254;6.702;2023-05-29T12:21:44;4.60;;;3.45;;
9950;SDS011;24074;49.254;6.702;2023-05-29T12:24:10;4.90;;;3.28;;
9950;SDS011;24074;49.254;6.702;2023-05-29T12:26:36;6.00;;;3.53;;
9950;SDS011;24074;49.254;6.702;2023-05-29T12:29:02;6.40;;;3.67;;
9950;SDS011;24074;49.254;6.702;2023-05-29T12:31:32;4.28;;;3.65;;
9950;SDS011;24074;49.254;6.702;2023-05-29T12:34:16;4.60;;;3.50;;
9950;SDS011;24074;49.254;6.702;2023-05-29T12:36:44;5.22;;;3.30;;
9950;SDS011;24074;49.254;6.702;2023-05-29T12:39:10;6.43;;;3.67;;
9950;SDS011;24074;49.254;6.702;2023-05-29T12:41:36;6.50;;;3.75;;
9950;SDS011;24074;49.254;6.702;2023-05-29T12:44:04;4.53;;;3.63;;
9950;SDS011;24074;49.254;6.702;2023-05-29T12:46:40;7.97;;;3.58;;
9950;SDS011;24074;49.254;6.702;2023-05-29T12:49:13;5.10;;;4.03;;
9950;SDS011;24074;49.254;6.702;2023-05-29T12:51:45;4.93;;;3.78;;
9950;SDS011;24074;49.254;6.702;2023-05-29T12:54:15;4.70;;;3.67;;
9950;SDS011;24074;49.254;6.702;2023-05-29T12:56:41;6.40;;;3.85;;
9950;SDS011;24074;49.254;6.702;2023-05-29T12:59:07;5.38;;;3.38;;
9950;SDS011;24074;49.254;6.702;2023-05-29T13:01:37;5.93;;;3.80;;
9950;SDS011;24074;49.254;6.702;2023-05-29T13:04:03;4.90;;;3.80;;
9950;SDS011;24074;49.254;6.702;2023-05-29T13:06:32;6.55;;;3.50;;
9950;SDS011;24074;49.254;6.702;2023-05-29T13:09:00;4.78;;;3.33;;
9950;SDS011;24074;49.254;6.702;2023-05-29T13:11:26;7.03;;;4.22;;
9950;SDS011;24074;49.254;6.702;2023-05-29T13:13:51;5.50;;;3.38;;
9950;SDS011;24074;49.254;6.702;2023-05-29T13:16:17;5.88;;;3.80;;
9950;SDS011;24074;49.254;6.702;2023-05-29T13:18:43;4.85;;;3.60;;
9950;SDS011;24074;49.254;6.702;2023-05-29T13:21:09;4.00;;;3.60;;
9950;SDS011;24074;49.254;6.702;2023-05-29T13:23:35;4.22;;;3.10;;
9950;SDS011;24074;49.254;6.702;2023-05-29T13:26:00;5.97;;;3.97;;
9950;SDS011;24074;49.254;6.702;2023-05-29T13:28:26;6.13;;;3.80;;
9950;SDS011;24074;49.254;6.702;2023-05-29T13:30:52;5.28;;;3.22;;
9950;SDS011;24074;49.254;6.702;2023-05-29T13:33:17;6.35;;;3.95;;
9950;SDS011;24074;49.254;6.702;2023-05-29T13:35:43;4.78;;;3.75;;
9950;SDS011;24074;49.254;6.702;2023-05-29T13:38:09;4.38;;;3.50;;
9950;SDS011;24074;49.254;6.702;2023-05-29T13:40:34;4.22;;;3.13;;
9950;SDS011;24074;49.254;6.702;2023-05-29T13:43:00;6.18;;;3.30;;
9950;SDS011;24074;49.254;6.702;2023-05-29T13:45:26;5.07;;;3.42;;
9950;SDS011;24074;49.254;6.702;2023-05-29T13:47:52;5.65;;;3.00;;
9950;SDS011;24074;49.254;6.702;2023-05-29T13:50:19;4.35;;;3.20;;
9950;SDS011;24074;49.254;6.702;2023-05-29T13:52:49;5.00;;;3.35;;
9950;SDS011;24074;49.254;6.702;2023-05-29T13:55:15;4.30;;;3.30;;
9950;SDS011;24074;49.254;6.702;2023-05-29T13:57:41;7.70;;;3.22;;
9950;SDS011;24074;49.254;6.702;2023-05-29T14:00:08;4.50;;;3.55;;
9950;SDS011;24074;49.254;6.702;2023-05-29T14:02:36;5.82;;;3.20;;
9950;SDS011;24074;49.254;6.702;2023-05-29T14:05:01;4.07;;;2.92;;
9950;SDS011;24074;49.254;6.702;2023-05-29T14:07:27;6.82;;;3.75;;
9950;SDS011;24074;49.254;6.702;2023-05-29T14:09:52;5.47;;;3.22;;
9950;SDS011;24074;49.254;6.702;2023-05-29T14:12:18;4.20;;;3.10;;
9950;SDS011;24074;49.254;6.702;2023-05-29T14:14:44;4.55;;;3.10;;
9950;SDS011;24074;49.254;6.702;2023-05-29T14:17:09;5.05;;;3.13;;
9950;SDS011;24074;49.254;6.702;2023-05-29T14:19:35;3.38;;;3.08;;
9950;SDS011;24074;49.254;6.702;2023-05-29T14:22:01;4.07;;;3.00;;
9950;SDS011;24074;49.254;6.702;2023-05-29T14:24:26;4.57;;;3.58;;
9950;SDS011;24074;49.254;6.702;2023-05-29T14:26:52;5.47;;;3.65;;
9950;SDS011;24074;49.254;6.702;2023-05-29T14:29:17;6.80;;;3.35;;
9950;SDS011;24074;49.254;6.702;2023-05-29T14:31:43;4.65;;;3.50;;
9950;SDS011;24074;49.254;6.702;2023-05-29T14:34:09;6.63;;;3.60;;
9950;SDS011;24074;49.254;6.702;2023-05-29T14:36:36;5.88;;;3.50;;
9950;SDS011;24074;49.254;6.702;2023-05-29T14:39:03;4.90;;;3.22;;
9950;SDS011;24074;49.254;6.702;2023-05-29T14:41:29;3.95;;;3.20;;
9950;SDS011;24074;49.254;6.702;2023-05-29T14:43:54;3.70;;;3.30;;
9950;SDS011;24074;49.254;6.702;2023-05-29T14:46:23;5.15;;;3.22;;
9950;SDS011;24074;49.254;6.702;2023-05-29T14:48:50;4.30;;;3.40;;
9950;SDS011;24074;49.254;6.702;2023-05-29T14:51:16;5.20;;;3.70;;
9950;SDS011;24074;49.254;6.702;2023-05-29T14:53:43;5.20;;;3.45;;
9950;SDS011;24074;49.254;6.702;2023-05-29T14:56:08;5.60;;;3.30;;
9950;SDS011;24074;49.254;6.702;2023-05-29T14:58:34;7.03;;;3.40;;
9950;SDS011;24074;49.254;6.702;2023-05-29T15:00:59;4.72;;;3.20;;
9950;SDS011;24074;49.254;6.702;2023-05-29T15:03:25;7.88;;;3.53;;
9950;SDS011;24074;49.254;6.702;2023-05-29T15:05:52;4.43;;;3.17;;
9950;SDS011;24074;49.254;6.702;2023-05-29T15:08:18;3.95;;;3.05;;
9950;SDS011;24074;49.254;6.702;2023-05-29T15:10:44;4.10;;;3.45;;
9950;SDS011;24074;49.254;6.702;2023-05-29T15:13:09;5.93;;;3.80;;
9950;SDS011;24074;49.254;6.702;2023-05-29T15:15:35;3.60;;;3.05;;
9950;SDS011;24074;49.254;6.702;2023-05-29T15:18:00;4.90;;;3.22;;
9950;SDS011;24074;49.254;6.702;2023-05-29T15:20:26;4.03;;;3.10;;
9950;SDS011;24074;49.254;6.702;2023-05-29T15:22:52;6.35;;;3.30;;